Time;durP1;ratioP1;P1;durP2;ratioP2;P2;SDS_P1;SDS_P2;PMS_P1;PMS_P2;Temp;Humidity;BMP_temperature;BMP_pressure;BME280_temperature;BME280_humidity;BME280_pressure;Samples;Min_cycle;Max_cycle;Signal;HPM_P1;HPM_P2
2023/10/18 00:01:00;;;;;;;14.77;10.43;;;9.20;99.90;;;;;;5044719;28;20036;-72
2023/10/18 00:03:30;;;;;;;14.32;11.13;;;9.20;99.90;;;;;;5032888;28;20021;-73
2023/10/18 00:05:56;;;;;;;13.15;9.77;;;9.20;99.90;;;;;;5030676;28;20013;-72
2023/10/18 00:08:22;;;;;;;15.68;11.23;;;9.10;99.90;;;;;;5044589;28;20043;-72
2023/10/18 00:10:50;;;;;;;12.85;9.40;;;9.10;99.90;;;;;;5051305;28;20470;-72
2023/10/18 00:13:16;;;;;;;11.00;9.23;;;9.10;99.90;;;;;;5050685;28;20025;-72
2023/10/18 00:15:42;;;;;;;13.52;9.65;;;9.00;99.90;;;;;;5051535;28;20444;-72
2023/10/18 00:18:11;;;;;;;13.75;9.63;;;9.00;99.90;;;;;;5050703;28;20425;-73
2023/10/18 00:20:37;;;;;;;13.00;9.43;;;9.00;99.90;;;;;;5050134;28;20497;-73
2023/10/18 00:23:03;;;;;;;13.38;9.75;;;9.00;99.90;;;;;;5050870;28;20041;-72
2023/10/18 00:25:30;;;;;;;13.18;9.45;;;9.00;99.90;;;;;;5051725;28;20021;-73
2023/10/18 00:27:55;;;;;;;13.63;10.32;;;9.00;99.90;;;;;;5050892;28;20041;-73
2023/10/18 00:30:21;;;;;;;13.57;10.43;;;9.00;99.90;;;;;;5051588;28;20049;-73
2023/10/18 00:32:47;;;;;;;12.02;9.50;;;9.00;99.90;;;;;;5052061;28;20035;-73
2023/10/18 00:35:18;;;;;;;11.45;8.68;;;8.90;99.90;;;;;;5052563;28;20013;-73
2023/10/18 00:37:45;;;;;;;12.38;9.65;;;8.90;99.90;;;;;;5051327;28;20115;-72
2023/10/18 00:43:26;;;;;;;13.85;9.88;;;8.90;99.90;;;;;;5050795;28;20102;-72
2023/10/18 00:45:54;;;;;;;12.55;9.23;;;8.90;99.90;;;;;;5051200;28;20028;-73
2023/10/18 00:48:24;;;;;;;12.38;9.93;;;8.90;99.90;;;;;;5050644;28;20021;-72
2023/10/18 00:50:52;;;;;;;14.33;10.37;;;8.80;99.90;;;;;;5051138;28;20028;-73
2023/10/18 00:53:25;;;;;;;12.73;9.70;;;8.80;99.90;;;;;;5050002;28;20067;-73
2023/10/18 00:55:57;;;;;;;13.95;9.98;;;8.80;99.90;;;;;;5051085;28;20032;-72
2023/10/18 00:58:24;;;;;;;13.30;10.18;;;8.80;99.90;;;;;;5050499;28;20025;-73
2023/10/18 01:00:51;;;;;;;13.73;9.80;;;8.80;99.90;;;;;;5050540;28;20062;-73
2023/10/18 01:03:29;;;;;;;12.50;9.55;;;8.80;99.90;;;;;;5049972;28;20104;-73
2023/10/18 01:06:04;;;;;;;13.95;9.60;;;8.80;99.90;;;;;;5051027;28;20494;-72
2023/10/18 01:08:31;;;;;;;17.20;10.80;;;8.80;99.90;;;;;;5048874;28;20033;-72
2023/10/18 01:11:33;;;;;;;12.93;9.77;;;8.80;99.90;;;;;;5050425;28;20013;-73
2023/10/18 01:13:55;;;;;;;12.88;9.40;;;8.70;99.90;;;;;;5048886;28;20033;-73
2023/10/18 01:16:21;;;;;;;14.02;9.73;;;8.70;99.90;;;;;;5049465;28;20025;-73
2023/10/18 01:18:55;;;;;;;11.88;9.13;;;8.70;99.90;;;;;;5048680;28;20017;-72
2023/10/18 01:21:22;;;;;;;13.20;9.90;;;8.70;99.90;;;;;;5050298;28;20025;-73
2023/10/18 01:23:59;;;;;;;13.82;9.10;;;8.70;99.90;;;;;;5050070;28;20017;-73
2023/10/18 01:26:30;;;;;;;12.65;9.27;;;8.60;99.90;;;;;;5050043;28;20044;-72
2023/10/18 01:28:57;;;;;;;12.63;9.18;;;8.60;99.90;;;;;;5050074;28;20520;-72
2023/10/18 01:31:24;;;;;;;12.38;9.38;;;8.60;99.90;;;;;;5049951;28;20100;-73
2023/10/18 01:33:51;;;;;;;16.25;10.50;;;8.60;99.90;;;;;;5049952;28;20029;-73
2023/10/18 01:36:18;;;;;;;14.10;10.02;;;8.60;99.90;;;;;;5049964;28;20024;-73
2023/10/18 01:38:46;;;;;;;13.50;9.50;;;8.60;99.90;;;;;;5048743;28;20025;-72
2023/10/18 01:41:16;;;;;;;13.75;10.48;;;8.50;99.90;;;;;;5049823;28;20052;-73
2023/10/18 01:43:44;;;;;;;13.75;10.30;;;8.60;99.90;;;;;;5049676;28;20086;-73
2023/10/18 01:46:13;;;;;;;14.77;8.90;;;8.50;99.90;;;;;;5049808;28;20029;-73
2023/10/18 01:48:39;;;;;;;14.40;10.15;;;8.50;99.90;;;;;;5048359;28;20086;-73
2023/10/18 01:51:06;;;;;;;12.85;9.13;;;8.50;99.90;;;;;;5050098;28;20105;-73
2023/10/18 01:53:36;;;;;;;14.15;10.38;;;8.40;99.90;;;;;;5049520;28;20022;-72
2023/10/18 01:56:02;;;;;;;13.27;9.50;;;8.40;99.90;;;;;;5048596;28;20040;-73
2023/10/18 01:58:28;;;;;;;13.35;9.98;;;8.40;99.90;;;;;;5053393;28;20108;-72
2023/10/18 02:00:56;;;;;;;12.77;9.75;;;8.40;99.90;;;;;;5054151;28;20025;-72
2023/10/18 02:03:23;;;;;;;12.63;9.02;;;8.40;99.90;;;;;;5053220;28;20021;-73
2023/10/18 02:05:49;;;;;;;11.60;9.05;;;8.40;99.90;;;;;;5053950;28;20025;-73
2023/10/18 02:08:15;;;;;;;12.52;8.95;;;8.40;99.90;;;;;;5053205;28;20049;-73
2023/10/18 02:10:49;;;;;;;14.05;10.70;;;8.40;99.90;;;;;;5053567;28;20033;-73
2023/10/18 02:13:15;;;;;;;15.93;10.10;;;8.40;99.90;;;;;;5053425;28;20053;-73
2023/10/18 02:15:41;;;;;;;12.20;9.02;;;8.40;99.90;;;;;;5053474;28;20053;-72
2023/10/18 02:18:08;;;;;;;12.02;8.98;;;8.40;99.90;;;;;;5053227;28;20021;-73
2023/10/18 02:20:35;;;;;;;14.13;9.93;;;8.30;99.90;;;;;;5053540;28;20021;-73
2023/10/18 02:23:02;;;;;;;18.50;10.80;;;8.30;99.90;;;;;;5052918;28;20255;-72
2023/10/18 02:25:44;;;;;;;15.00;9.93;;;8.30;99.90;;;;;;5053380;28;20017;-72
2023/10/18 02:28:23;;;;;;;11.25;8.90;;;8.30;99.90;;;;;;5052820;28;20112;-72
2023/10/18 02:30:55;;;;;;;15.10;11.13;;;8.30;99.90;;;;;;5053239;28;20056;-72
2023/10/18 02:33:23;;;;;;;12.65;9.68;;;8.30;99.90;;;;;;5051230;28;20013;-72
2023/10/18 02:35:49;;;;;;;15.50;10.15;;;8.30;99.90;;;;;;5053091;28;20025;-72
2023/10/18 02:38:14;;;;;;;16.27;11.32;;;8.30;99.90;;;;;;5052470;28;20382;-72
2023/10/18 02:40:40;;;;;;;15.25;10.30;;;8.30;99.90;;;;;;5053430;28;20343;-73
2023/10/18 02:43:11;;;;;;;14.18;10.52;;;8.30;99.90;;;;;;5052151;28;20029;-72
2023/10/18 02:45:42;;;;;;;16.55;10.68;;;8.30;99.90;;;;;;5053014;28;20029;-72
2023/10/18 02:48:13;;;;;;;16.42;10.35;;;8.30;99.90;;;;;;5052331;28;20653;-72
2023/10/18 02:50:40;;;;;;;12.82;9.30;;;8.20;99.90;;;;;;5051621;28;20056;-72
2023/10/18 02:53:06;;;;;;;15.00;10.63;;;8.20;99.90;;;;;;5052099;28;20096;-72
2023/10/18 02:55:34;;;;;;;14.48;9.73;;;8.20;99.90;;;;;;5051291;28;20128;-73
2023/10/18 02:57:59;;;;;;;13.35;9.65;;;8.20;99.90;;;;;;5052281;28;20036;-72
2023/10/18 03:00:26;;;;;;;14.45;9.88;;;8.20;99.90;;;;;;5052705;28;20025;-72
2023/10/18 03:02:54;;;;;;;14.35;10.02;;;8.20;99.90;;;;;;5050588;28;20029;-72
2023/10/18 03:05:20;;;;;;;15.48;11.00;;;8.20;99.90;;;;;;5052692;28;20052;-73
2023/10/18 03:07:46;;;;;;;14.68;10.23;;;8.20;99.90;;;;;;5051136;28;20068;-72
2023/10/18 03:10:13;;;;;;;19.42;10.73;;;8.10;99.90;;;;;;5052229;28;20068;-72
2023/10/18 03:12:44;;;;;;;13.32;10.15;;;8.10;99.90;;;;;;5050394;28;20029;-72
2023/10/18 03:15:12;;;;;;;15.02;9.65;;;8.10;99.90;;;;;;5051209;28;20082;-73
2023/10/18 03:17:37;;;;;;;14.65;10.18;;;8.10;99.90;;;;;;5050627;28;20066;-72
2023/10/18 03:20:26;;;;;;;13.75;9.70;;;8.10;99.90;;;;;;5052190;28;20017;-72
2023/10/18 03:22:51;;;;;;;15.82;9.85;;;8.10;99.90;;;;;;5051243;28;20037;-72
2023/10/18 03:25:17;;;;;;;16.95;10.80;;;8.00;99.90;;;;;;5052127;28;20017;-72
2023/10/18 03:27:50;;;;;;;13.98;9.95;;;8.00;99.90;;;;;;5050921;28;20035;-72
2023/10/18 03:30:23;;;;;;;16.00;10.25;;;8.00;99.90;;;;;;5051664;28;20071;-72
2023/10/18 03:32:53;;;;;;;13.57;9.25;;;8.00;99.90;;;;;;5051568;28;20143;-73
2023/10/18 03:35:22;;;;;;;15.18;10.05;;;8.00;99.90;;;;;;5050813;28;20029;-73
2023/10/18 03:37:48;;;;;;;15.38;10.77;;;8.00;99.90;;;;;;5051333;28;20164;-72
2023/10/18 03:40:23;;;;;;;14.73;9.90;;;8.00;99.90;;;;;;5050813;28;20474;-72
2023/10/18 03:42:51;;;;;;;13.85;9.57;;;8.00;99.90;;;;;;5049816;28;20048;-72
2023/10/18 03:45:33;;;;;;;13.90;9.50;;;8.00;99.90;;;;;;5051722;28;20678;-72
2023/10/18 03:47:59;;;;;;;16.15;9.85;;;7.90;99.90;;;;;;5049374;28;20036;-72
2023/10/18 03:50:38;;;;;;;13.25;9.43;;;8.00;99.90;;;;;;5050353;28;20401;-72
2023/10/18 03:53:06;;;;;;;15.27;10.13;;;8.00;99.90;;;;;;5051104;28;20066;-72
2023/10/18 03:55:38;;;;;;;14.32;9.98;;;7.90;99.90;;;;;;5051741;28;20078;-72
2023/10/18 03:58:07;;;;;;;16.50;10.52;;;7.90;99.90;;;;;;5051143;28;20013;-72
2023/10/18 04:00:39;;;;;;;13.30;9.80;;;7.90;99.90;;;;;;5051579;28;20029;-72
2023/10/18 04:03:10;;;;;;;15.05;9.48;;;7.90;99.90;;;;;;5050857;28;20017;-72
2023/10/18 04:05:42;;;;;;;17.40;11.07;;;7.90;99.90;;;;;;5050923;28;20024;-72
2023/10/18 04:08:13;;;;;;;14.63;10.30;;;7.90;99.90;;;;;;5050880;28;20104;-73
2023/10/18 04:10:40;;;;;;;13.00;9.55;;;7.90;99.90;;;;;;5051556;28;20021;-72
2023/10/18 04:13:12;;;;;;;15.18;10.63;;;7.90;99.90;;;;;;5050483;28;20021;-72
2023/10/18 04:15:45;;;;;;;13.70;10.75;;;7.90;99.90;;;;;;5050822;28;20021;-72
2023/10/18 04:18:22;;;;;;;14.43;9.82;;;7.90;99.90;;;;;;5050517;28;20020;-72
2023/10/18 04:20:48;;;;;;;21.15;11.10;;;7.90;99.90;;;;;;5049582;28;20017;-72
2023/10/18 04:23:26;;;;;;;13.77;10.15;;;7.80;99.90;;;;;;5050770;28;20439;-72
2023/10/18 04:26:00;;;;;;;14.18;10.32;;;7.80;99.90;;;;;;5048568;28;20045;-72
2023/10/18 04:28:28;;;;;;;13.35;10.18;;;7.80;99.90;;;;;;5037882;28;20551;-72
2023/10/18 04:30:59;;;;;;;15.60;10.98;;;7.80;99.90;;;;;;5051075;28;20020;-72
2023/10/18 04:33:35;;;;;;;15.63;9.55;;;7.80;99.90;;;;;;5050320;28;20563;-72
2023/10/18 04:36:14;;;;;;;14.75;10.02;;;7.80;99.90;;;;;;5050831;28;20021;-72
2023/10/18 04:38:51;;;;;;;14.02;10.38;;;7.80;99.90;;;;;;5050292;28;20116;-73
2023/10/18 04:41:23;;;;;;;12.40;8.70;;;7.80;99.90;;;;;;5049369;28;20052;-72
2023/10/18 04:44:40;;;;;;;16.23;10.57;;;7.80;99.90;;;;;;5050305;28;20078;-73
2023/10/18 04:46:40;;;;;;;15.32;9.77;;;7.70;99.90;;;;;;5047773;28;20506;-72
2023/10/18 04:51:44;;;;;;;16.83;8.98;;;7.70;99.90;;;;;;5050697;28;20068;-73
2023/10/18 04:54:15;;;;;;;15.60;10.32;;;7.70;99.90;;;;;;5050453;28;20039;-72
2023/10/18 04:56:44;;;;;;;18.75;10.68;;;7.70;99.90;;;;;;5049375;28;20540;-73
2023/10/18 04:59:27;;;;;;;15.77;10.98;;;7.70;99.90;;;;;;5050031;28;20482;-72
2023/10/18 05:04:29;;;;;;;16.20;11.43;;;7.70;99.90;;;;;;5050181;28;20112;-72
2023/10/18 05:06:56;;;;;;;12.70;9.43;;;7.70;99.90;;;;;;5050506;28;20056;-72
2023/10/18 05:12:16;;;;;;;14.57;9.98;;;7.70;99.90;;;;;;5050308;28;20036;-72
2023/10/18 05:17:32;;;;;;;14.20;9.40;;;7.70;99.90;;;;;;5036061;28;20044;-72
2023/10/18 05:20:14;;;;;;;15.05;9.32;;;7.70;99.90;;;;;;5050365;28;20466;-72
2023/10/18 05:22:41;;;;;;;15.82;9.90;;;7.70;99.90;;;;;;5049660;28;20017;-72
2023/10/18 05:27:59;;;;;;;13.20;9.65;;;7.70;99.90;;;;;;5049862;28;20111;-72
2023/10/18 05:42:03;;;;;;;16.38;10.73;;;7.60;99.90;;;;;;5053885;28;20032;-73
2023/10/18 05:44:06;;;;;;;15.70;9.88;;;7.60;99.90;;;;;;5049442;28;20500;-72
2023/10/18 05:46:32;;;;;;;13.10;9.82;;;7.60;99.90;;;;;;5053603;28;20043;-72
2023/10/18 05:49:00;;;;;;;16.65;9.85;;;7.60;99.90;;;;;;5053165;28;20025;-72
2023/10/18 05:51:38;;;;;;;15.15;10.18;;;7.60;99.90;;;;;;5053391;28;20040;-72
2023/10/18 05:54:04;;;;;;;15.32;10.98;;;7.60;99.90;;;;;;5053690;28;20025;-72
2023/10/18 05:56:31;;;;;;;14.90;10.38;;;7.60;99.90;;;;;;5053731;28;20033;-73
2023/10/18 06:01:42;;;;;;;12.93;9.35;;;7.60;99.90;;;;;;5053998;28;20104;-72
2023/10/18 06:04:08;;;;;;;11.98;9.52;;;7.60;99.90;;;;;;5051628;28;20017;-73
2023/10/18 06:06:37;;;;;;;13.65;9.75;;;7.60;99.90;;;;;;5053762;28;20067;-73
2023/10/18 06:09:10;;;;;;;16.92;10.27;;;7.60;99.90;;;;;;5053006;28;20013;-73
2023/10/18 06:11:39;;;;;;;13.10;8.95;;;7.50;99.90;;;;;;5052337;28;20120;-73
2023/10/18 06:14:05;;;;;;;15.27;10.70;;;7.60;99.90;;;;;;5051539;28;20055;-72
2023/10/18 06:16:34;;;;;;;15.80;11.23;;;7.50;99.90;;;;;;5052995;28;20034;-72
2023/10/18 06:19:07;;;;;;;16.55;11.20;;;7.50;99.90;;;;;;5052553;28;20082;-72
2023/10/18 06:21:37;;;;;;;15.85;10.07;;;7.50;99.90;;;;;;5053429;28;20053;-72
2023/10/18 06:24:10;;;;;;;15.48;10.23;;;7.50;99.90;;;;;;5052609;28;20020;-72
2023/10/18 06:26:39;;;;;;;13.38;10.20;;;7.50;99.90;;;;;;5053276;28;20466;-72
2023/10/18 06:29:22;;;;;;;17.95;11.15;;;7.50;99.90;;;;;;5052218;28;20032;-72
2023/10/18 06:31:49;;;;;;;17.27;10.82;;;7.50;99.90;;;;;;5059601;28;20037;-72
2023/10/18 06:34:17;;;;;;;15.48;10.23;;;7.50;99.90;;;;;;5051884;28;20036;-72
2023/10/18 06:36:47;;;;;;;19.20;9.45;;;7.50;99.90;;;;;;5051436;28;20032;-72
2023/10/18 06:39:58;;;;;;;17.73;10.68;;;7.50;99.90;;;;;;5051348;28;20017;-73
2023/10/18 06:42:06;;;;;;;14.98;9.90;;;7.50;99.90;;;;;;5044965;28;20044;-72
2023/10/18 06:44:33;;;;;;;15.05;9.60;;;7.50;99.90;;;;;;5050822;28;20132;-74
2023/10/18 06:47:06;;;;;;;15.27;10.57;;;7.50;99.90;;;;;;5051536;28;20025;-73
2023/10/18 06:49:32;;;;;;;15.05;10.18;;;7.50;99.90;;;;;;5048603;28;20489;-72
2023/10/18 06:52:00;;;;;;;16.10;10.10;;;7.50;99.90;;;;;;5049737;28;20066;-72
2023/10/18 06:54:32;;;;;;;14.88;10.20;;;7.50;99.90;;;;;;5050259;28;20025;-72
2023/10/18 06:57:15;;;;;;;14.02;10.15;;;7.50;99.90;;;;;;5063259;28;20064;-72
2023/10/18 06:59:44;;;;;;;14.93;9.85;;;7.50;99.90;;;;;;5038807;28;20029;-72
2023/10/18 07:02:12;;;;;;;14.63;10.30;;;7.50;99.90;;;;;;5035102;28;20553;-72
2023/10/18 07:04:38;;;;;;;14.77;10.18;;;7.50;99.90;;;;;;5046206;28;20025;-72
2023/10/18 07:07:11;;;;;;;12.98;9.05;;;7.50;99.90;;;;;;5050103;28;20029;-74
2023/10/18 07:09:37;;;;;;;11.93;8.43;;;7.50;99.90;;;;;;5049921;28;20112;-73
2023/10/18 07:12:03;;;;;;;18.00;11.00;;;7.50;99.90;;;;;;5052558;28;20017;-72
2023/10/18 07:14:31;;;;;;;14.65;10.05;;;7.50;99.90;;;;;;5051974;28;20427;-73
2023/10/18 07:17:00;;;;;;;14.55;9.25;;;7.60;99.90;;;;;;5052533;28;20063;-73
2023/10/18 07:19:27;;;;;;;14.05;9.60;;;7.50;99.90;;;;;;5049495;28;20108;-72
2023/10/18 07:21:54;;;;;;;12.60;8.30;;;7.60;99.90;;;;;;5052400;28;20023;-73
2023/10/18 07:24:39;;;;;;;13.27;9.35;;;7.60;99.90;;;;;;5044836;28;20116;-72
2023/10/18 07:27:08;;;;;;;13.82;8.75;;;7.50;99.90;;;;;;5047265;28;20024;-73
2023/10/18 07:29:36;;;;;;;14.65;9.73;;;7.60;99.90;;;;;;5049195;28;20490;-72
2023/10/18 07:32:06;;;;;;;15.52;9.95;;;7.60;99.90;;;;;;5057846;28;20063;-73
2023/10/18 07:34:33;;;;;;;13.05;9.63;;;7.60;99.90;;;;;;5048681;28;20029;-73
2023/10/18 07:36:58;;;;;;;13.63;9.57;;;7.60;99.90;;;;;;5052051;28;20051;-73
2023/10/18 07:39:24;;;;;;;14.77;9.65;;;7.60;99.90;;;;;;5051357;28;20032;-73
2023/10/18 07:41:55;;;;;;;16.45;10.70;;;7.70;99.90;;;;;;5049689;28;20052;-73
2023/10/18 07:44:20;;;;;;;15.30;10.27;;;7.70;99.90;;;;;;5051197;28;20025;-72
2023/10/18 07:46:46;;;;;;;15.07;9.93;;;7.70;99.90;;;;;;5051875;28;20402;-72
2023/10/18 07:49:14;;;;;;;13.23;9.48;;;7.70;99.90;;;;;;5049666;28;20394;-72
2023/10/18 07:51:55;;;;;;;12.13;9.15;;;7.70;99.90;;;;;;5050151;28;20029;-72
2023/10/18 07:54:22;;;;;;;13.73;9.10;;;7.70;99.90;;;;;;5048568;28;20021;-73
2023/10/18 07:56:54;;;;;;;15.77;9.60;;;7.80;99.90;;;;;;5049977;28;20394;-72
2023/10/18 07:59:27;;;;;;;12.73;8.70;;;7.80;99.90;;;;;;5047934;28;20032;-73
2023/10/18 08:04:27;;;;;;;17.30;9.75;;;7.80;99.90;;;;;;5050643;28;20036;-72
2023/10/18 08:06:53;;;;;;;12.57;9.13;;;7.90;99.90;;;;;;5051601;28;20021;-72
2023/10/18 08:09:28;;;;;;;14.68;8.93;;;7.90;99.90;;;;;;5050806;28;20420;-72
2023/10/18 08:11:55;;;;;;;12.52;8.25;;;7.90;99.90;;;;;;5051595;28;20055;-72
2023/10/18 08:14:29;;;;;;;12.13;9.20;;;7.90;99.90;;;;;;5050678;28;20028;-72
2023/10/18 08:16:58;;;;;;;14.90;8.90;;;7.90;99.90;;;;;;5051665;28;20073;-72
2023/10/18 08:19:24;;;;;;;12.25;9.23;;;8.00;99.90;;;;;;5050781;28;20553;-72
2023/10/18 08:22:22;;;;;;;14.00;8.73;;;8.00;99.90;;;;;;5051394;28;20029;-72
2023/10/18 08:24:49;;;;;;;12.85;9.00;;;8.10;99.90;;;;;;5050459;28;20057;-72
2023/10/18 08:27:15;;;;;;;13.32;9.63;;;8.10;99.90;;;;;;5051692;28;20040;-72
2023/10/18 08:29:41;;;;;;;11.77;8.25;;;8.10;99.90;;;;;;5050672;28;20032;-72
2023/10/18 08:32:16;;;;;;;12.48;9.05;;;8.10;99.90;;;;;;5051423;28;20059;-72
2023/10/18 08:34:45;;;;;;;14.75;8.77;;;8.20;99.90;;;;;;5036482;28;20067;-72
2023/10/18 08:37:13;;;;;;;12.60;8.80;;;8.20;99.90;;;;;;5051108;28;20071;-72
2023/10/18 08:39:40;;;;;;;12.57;8.63;;;8.30;99.90;;;;;;5049053;28;20036;-72
2023/10/18 08:42:10;;;;;;;9.13;7.28;;;8.30;99.90;;;;;;5050830;28;20494;-72
2023/10/18 08:44:38;;;;;;;12.55;9.00;;;8.30;99.90;;;;;;5050582;28;20074;-74
2023/10/18 08:47:12;;;;;;;11.98;8.30;;;8.40;99.90;;;;;;5050760;28;20466;-72
2023/10/18 08:49:50;;;;;;;11.65;7.68;;;8.40;99.90;;;;;;5050305;28;20033;-72
2023/10/18 08:52:20;;;;;;;10.48;7.00;;;8.50;99.90;;;;;;5051160;28;20053;-72
2023/10/18 08:54:48;;;;;;;10.70;8.23;;;8.50;99.90;;;;;;5050265;28;20479;-73
2023/10/18 08:57:34;;;;;;;9.68;6.95;;;8.50;99.90;;;;;;5050854;28;20008;-72
2023/10/18 09:00:53;;;;;;;13.07;7.88;;;8.60;99.90;;;;;;5050323;28;20037;-72
2023/10/18 09:02:54;;;;;;;11.25;7.60;;;8.70;99.90;;;;;;5050196;28;20594;-72
2023/10/18 09:05:22;;;;;;;12.90;7.95;;;8.70;99.90;;;;;;5050276;28;20029;-72
2023/10/18 09:07:53;;;;;;;9.32;6.93;;;8.80;99.90;;;;;;5049623;28;20291;-72
2023/10/18 09:13:33;;;;;;;14.38;7.82;;;8.90;99.90;;;;;;5050036;28;20025;-72
2023/10/18 09:18:27;;;;;;;9.35;6.80;;;9.20;99.90;;;;;;5049824;28;20025;-72
2023/10/18 09:20:56;;;;;;;10.52;6.88;;;9.30;99.90;;;;;;5050495;28;20104;-72
2023/10/18 09:23:29;;;;;;;9.55;7.07;;;9.30;99.90;;;;;;5050156;28;20013;-72
2023/10/18 09:26:28;;;;;;;10.25;7.63;;;9.40;99.90;;;;;;5050621;28;20056;-72
2023/10/18 09:28:47;;;;;;;10.43;6.78;;;9.50;99.90;;;;;;5049246;28;20451;-72
2023/10/18 09:31:21;;;;;;;9.77;6.65;;;9.60;99.90;;;;;;5050408;28;20104;-72
2023/10/18 09:33:50;;;;;;;10.70;6.80;;;9.70;99.90;;;;;;5048393;28;20021;-72
2023/10/18 09:36:20;;;;;;;10.80;7.50;;;9.70;99.90;;;;;;5050402;28;20124;-72
2023/10/18 09:38:48;;;;;;;10.63;6.78;;;9.80;99.90;;;;;;5049858;28;20025;-72
2023/10/18 09:41:15;;;;;;;9.52;6.07;;;9.90;99.90;;;;;;5049929;28;20021;-72
2023/10/18 09:43:41;;;;;;;9.80;6.93;;;9.90;99.90;;;;;;5049569;28;20029;-72
2023/10/18 09:46:08;;;;;;;10.02;6.03;;;10.00;99.90;;;;;;5050533;28;20475;-72
2023/10/18 09:48:38;;;;;;;10.45;6.93;;;10.00;99.90;;;;;;5049468;28;20155;-72
2023/10/18 09:51:08;;;;;;;8.38;6.00;;;10.10;99.90;;;;;;5050200;28;20513;-72
2023/10/18 09:53:54;;;;;;;10.75;7.05;;;10.10;99.90;;;;;;5049349;28;20029;-72
2023/10/18 09:56:27;;;;;;;8.85;5.93;;;10.20;99.90;;;;;;5050117;28;20059;-72
2023/10/18 09:59:05;;;;;;;8.82;6.38;;;10.20;99.90;;;;;;5049453;28;20017;-72
2023/10/18 10:04:13;;;;;;;8.77;6.07;;;10.30;99.90;;;;;;5049364;28;20025;-72
2023/10/18 10:06:46;;;;;;;8.85;6.72;;;10.30;99.90;;;;;;5050189;28;20086;-72
2023/10/18 10:09:17;;;;;;;9.48;6.13;;;10.40;99.90;;;;;;5049202;28;20032;-72
2023/10/18 10:11:46;;;;;;;9.63;5.88;;;10.50;99.90;;;;;;5049956;28;20116;-72
2023/10/18 10:14:17;;;;;;;11.55;6.43;;;10.50;99.90;;;;;;5049064;28;20496;-72
2023/10/18 10:16:56;;;;;;;8.40;5.43;;;10.60;99.90;;;;;;5049757;28;20033;-72
2023/10/18 10:19:30;;;;;;;10.25;6.47;;;10.70;99.90;;;;;;5052559;28;20025;-72
2023/10/18 10:22:17;;;;;;;8.93;6.18;;;10.70;99.90;;;;;;5052149;28;20078;-72
2023/10/18 10:24:43;;;;;;;10.60;5.78;;;10.80;99.90;;;;;;5052917;28;20028;-72
2023/10/18 10:27:49;;;;;;;7.68;5.40;;;10.90;99.90;;;;;;5041412;28;20482;-72
2023/10/18 10:33:12;;;;;;;10.40;5.93;;;11.10;99.90;;;;;;5053439;28;20037;-72
2023/10/18 10:35:44;;;;;;;8.13;5.55;;;11.20;99.90;;;;;;5051804;28;20021;-72
2023/10/18 10:38:14;;;;;;;13.32;5.63;;;11.30;99.90;;;;;;5052823;28;20032;-72
2023/10/18 10:40:49;;;;;;;9.10;5.88;;;11.40;99.90;;;;;;5052852;28;20124;-72
2023/10/18 10:43:19;;;;;;;7.78;5.82;;;11.50;99.90;;;;;;5052522;28;20035;-72
2023/10/18 10:50:53;;;;;;;8.65;5.15;;;11.70;99.90;;;;;;5052853;28;20036;-72
2023/10/18 10:53:43;;;;;;;8.07;5.45;;;11.80;99.90;;;;;;5052945;28;20036;-72
2023/10/18 10:56:42;;;;;;;7.85;5.20;;;11.90;99.90;;;;;;5041915;28;20029;-72
2023/10/18 11:01:43;;;;;;;8.43;5.47;;;12.10;99.90;;;;;;5052694;28;20033;-72
2023/10/18 11:04:24;;;;;;;7.28;5.30;;;12.20;99.90;;;;;;5050539;28;20048;-72
2023/10/18 11:06:56;;;;;;;8.20;5.72;;;12.30;99.90;;;;;;5051558;28;20025;-72
2023/10/18 11:09:32;;;;;;;7.72;5.63;;;12.40;99.90;;;;;;5050343;28;20029;-72
2023/10/18 11:12:17;;;;;;;9.23;5.68;;;12.50;99.90;;;;;;5051050;28;20409;-72
2023/10/18 11:14:44;;;;;;;9.85;5.20;;;12.50;99.90;;;;;;5051537;28;20029;-72
2023/10/18 11:19:51;;;;;;;9.57;5.05;;;12.70;99.90;;;;;;5037962;28;20029;-72
2023/10/18 11:22:21;;;;;;;8.95;5.55;;;12.70;99.90;;;;;;5052467;28;20032;-72
2023/10/18 11:24:50;;;;;;;8.05;5.43;;;12.80;99.90;;;;;;5051554;28;20095;-72
2023/10/18 11:27:18;;;;;;;7.43;5.28;;;12.90;99.90;;;;;;5052212;28;20075;-72
2023/10/18 11:29:45;;;;;;;7.78;5.28;;;12.90;99.90;;;;;;5036557;28;20025;-72
2023/10/18 11:32:20;;;;;;;8.20;5.50;;;13.00;99.90;;;;;;5052211;28;20056;-72
2023/10/18 11:34:45;;;;;;;12.27;5.05;;;13.00;99.90;;;;;;5051391;28;20110;-73
2023/10/18 11:37:23;;;;;;;9.70;5.35;;;13.00;99.90;;;;;;5051741;28;20609;-73
2023/10/18 11:39:48;;;;;;;7.57;4.55;;;13.10;99.90;;;;;;5051161;28;20031;-73
2023/10/18 11:42:17;;;;;;;10.60;5.10;;;13.10;99.90;;;;;;5048790;28;20104;-73
2023/10/18 11:44:43;;;;;;;6.82;4.63;;;13.20;99.90;;;;;;5050257;28;20021;-72
2023/10/18 11:47:19;;;;;;;9.40;4.72;;;13.30;99.90;;;;;;5050109;28;20493;-72
2023/10/18 11:49:57;;;;;;;7.65;4.53;;;13.40;99.90;;;;;;5043380;28;20029;-72
2023/10/18 11:52:23;;;;;;;6.90;4.80;;;13.50;99.90;;;;;;5051606;28;20447;-72
2023/10/18 11:54:52;;;;;;;7.07;4.82;;;13.60;99.90;;;;;;5051153;28;20045;-72
2023/10/18 11:57:39;;;;;;;7.15;4.53;;;13.60;99.90;;;;;;5051203;28;20512;-72
2023/10/18 12:02:50;;;;;;;8.00;4.55;;;13.70;99.90;;;;;;5051803;28;20218;-72
2023/10/18 12:05:23;;;;;;;7.32;4.57;;;13.80;99.90;;;;;;5048114;28;20032;-72
2023/10/18 12:07:49;;;;;;;7.60;4.63;;;13.80;99.90;;;;;;5042805;28;20617;-72
2023/10/18 12:10:34;;;;;;;8.65;5.07;;;13.80;99.90;;;;;;5043441;28;20557;-72
2023/10/18 12:13:05;;;;;;;9.15;4.97;;;13.90;99.90;;;;;;5051082;28;20029;-72
2023/10/18 12:15:31;;;;;;;10.82;4.93;;;14.00;99.90;;;;;;5050616;28;20021;-72
2023/10/18 12:18:01;;;;;;;7.07;4.70;;;14.00;99.90;;;;;;5063049;28;20055;-72
2023/10/18 12:20:34;;;;;;;6.28;4.85;;;14.10;99.90;;;;;;5046210;28;20094;-73
2023/10/18 12:23:02;;;;;;;7.43;4.85;;;14.20;99.90;;;;;;5053314;28;20025;-72
2023/10/18 12:25:28;;;;;;;7.93;4.32;;;14.20;99.90;;;;;;5058271;28;20021;-73
2023/10/18 12:27:55;;;;;;;6.97;4.80;;;14.30;99.90;;;;;;5044435;28;20029;-73
2023/10/18 12:32:53;;;;;;;6.63;4.47;;;14.40;99.90;;;;;;5049541;28;20607;-72
2023/10/18 12:35:22;;;;;;;9.20;4.97;;;14.40;99.90;;;;;;5047324;28;20477;-73
2023/10/18 12:37:51;;;;;;;6.40;4.32;;;14.50;99.90;;;;;;5055028;28;20067;-72
2023/10/18 12:40:41;;;;;;;6.97;4.40;;;14.50;99.90;;;;;;5049849;28;20497;-73
2023/10/18 12:43:07;;;;;;;8.65;4.68;;;14.60;99.90;;;;;;5050712;28;20068;-72
2023/10/18 12:45:45;;;;;;;5.82;4.05;;;14.60;99.90;;;;;;5048736;28;20075;-72
2023/10/18 12:48:11;;;;;;;6.40;4.50;;;14.60;99.90;;;;;;5050586;28;20055;-73
2023/10/18 12:50:38;;;;;;;6.80;4.45;;;14.70;99.90;;;;;;5050124;28;20485;-73
2023/10/18 12:53:47;;;;;;;6.28;3.85;;;14.70;99.90;;;;;;5050708;28;20115;-72
2023/10/18 12:55:58;;;;;;;9.00;4.15;;;14.70;99.90;;;;;;5047044;28;20040;-72
2023/10/18 12:58:31;;;;;;;6.70;4.00;;;14.80;99.90;;;;;;5050091;28;20044;-72
2023/10/18 13:01:08;;;;;;;8.75;3.85;;;14.80;99.90;;;;;;5046888;28;20474;-73
2023/10/18 13:03:37;;;;;;;5.85;4.03;;;14.90;99.90;;;;;;5048456;28;20021;-72
2023/10/18 13:06:15;;;;;;;6.60;4.22;;;14.90;99.90;;;;;;5047022;28;20021;-73
2023/10/18 13:08:54;;;;;;;5.68;4.22;;;14.90;99.90;;;;;;5048901;28;20056;-72
2023/10/18 13:14:05;;;;;;;8.75;4.78;;;14.90;99.90;;;;;;5049521;28;20029;-72
2023/10/18 13:16:32;;;;;;;9.00;4.10;;;14.90;99.90;;;;;;5050773;28;20067;-71
2023/10/18 13:18:57;;;;;;;5.55;4.10;;;14.90;99.90;;;;;;5050604;28;20075;-73
2023/10/18 13:21:29;;;;;;;5.88;3.70;;;14.90;99.90;;;;;;5052296;28;20017;-72
2023/10/18 13:24:16;;;;;;;7.28;4.15;;;14.90;99.90;;;;;;5054145;28;20074;-73
2023/10/18 13:26:45;;;;;;;6.30;4.00;;;15.00;99.90;;;;;;5048015;28;20021;-73
2023/10/18 13:29:48;;;;;;;5.85;4.05;;;15.00;99.90;;;;;;5050157;28;20445;-74
2023/10/18 13:32:12;;;;;;;5.93;3.50;;;15.00;99.90;;;;;;5053207;28;20021;-73
2023/10/18 13:34:43;;;;;;;6.85;4.13;;;15.10;99.90;;;;;;5057666;28;20029;-72
2023/10/18 13:37:12;;;;;;;7.30;4.30;;;15.10;99.90;;;;;;5046931;28;20017;-74
2023/10/18 13:39:39;;;;;;;6.13;4.15;;;15.10;99.90;;;;;;5045426;28;21042;-73
2023/10/18 13:42:05;;;;;;;6.10;3.60;;;15.10;99.90;;;;;;5041752;28;20033;-74
2023/10/18 13:44:31;;;;;;;7.20;3.88;;;15.10;99.90;;;;;;5047549;28;20134;-73
2023/10/18 13:46:59;;;;;;;8.18;4.22;;;15.10;99.90;;;;;;5055252;28;20097;-73
2023/10/18 13:49:25;;;;;;;5.65;4.20;;;15.10;99.90;;;;;;5059074;28;20017;-72
2023/10/18 13:51:53;;;;;;;5.22;3.78;;;15.20;99.90;;;;;;5052712;28;20120;-72
2023/10/18 13:54:20;;;;;;;7.93;3.58;;;15.10;99.90;;;;;;5056935;28;20023;-73
2023/10/18 13:56:47;;;;;;;9.93;4.13;;;15.10;99.90;;;;;;5056971;28;20040;-73
2023/10/18 13:59:16;;;;;;;9.63;3.75;;;15.10;99.90;;;;;;5048156;28;20025;-73
2023/10/18 14:01:42;;;;;;;6.30;4.20;;;15.20;99.90;;;;;;5052837;28;20121;-73
2023/10/18 14:04:08;;;;;;;9.77;4.35;;;15.20;99.90;;;;;;5056066;28;20021;-73